sensor_id;sensor_type;location;lat;lon;timestamp;P1;durP1;ratioP1;P2;durP2;ratioP2
63534;SDS011;55128;50.230;18.944;2024-03-02T00:01:09;92.32;;;55.38;;
63534;SDS011;55128;50.230;18.944;2024-03-02T00:06:10;84.90;;;54.00;;
63534;SDS011;55128;50.230;18.944;2024-03-02T00:11:11;97.45;;;55.22;;
63534;SDS011;55128;50.230;18.944;2024-03-02T00:16:14;91.65;;;54.80;;
63534;SDS011;55128;50.230;18.944;2024-03-02T00:21:16;94.18;;;54.08;;
63534;SDS011;55128;50.230;18.944;2024-03-02T00:26:20;89.00;;;49.63;;
63534;SDS011;55128;50.230;18.944;2024-03-02T00:31:20;81.55;;;48.22;;
63534;SDS011;55128;50.230;18.944;2024-03-02T00:36:25;84.90;;;49.33;;
63534;SDS011;55128;50.230;18.944;2024-03-02T00:41:27;81.53;;;48.95;;
63534;SDS011;55128;50.230;18.944;2024-03-02T00:46:33;75.30;;;47.30;;
63534;SDS011;55128;50.230;18.944;2024-03-02T00:51:37;84.03;;;50.75;;
63534;SDS011;55128;50.230;18.944;2024-03-02T00:56:39;100.30;;;57.13;;
63534;SDS011;55128;50.230;18.944;2024-03-02T01:01:42;75.68;;;47.17;;
63534;SDS011;55128;50.230;18.944;2024-03-02T01:06:43;75.35;;;43.92;;
63534;SDS011;55128;50.230;18.944;2024-03-02T01:11:43;68.75;;;42.13;;
63534;SDS011;55128;50.230;18.944;2024-03-02T01:16:44;65.32;;;42.40;;
63534;SDS011;55128;50.230;18.944;2024-03-02T01:21:44;61.78;;;38.88;;
63534;SDS011;55128;50.230;18.944;2024-03-02T01:26:45;63.80;;;41.00;;
63534;SDS011;55128;50.230;18.944;2024-03-02T01:31:45;64.87;;;40.07;;
63534;SDS011;55128;50.230;18.944;2024-03-02T01:36:45;70.73;;;43.37;;
63534;SDS011;55128;50.230;18.944;2024-03-02T01:41:46;73.55;;;42.85;;
63534;SDS011;55128;50.230;18.944;2024-03-02T01:46:46;69.07;;;43.78;;
63534;SDS011;55128;50.230;18.944;2024-03-02T01:51:46;91.63;;;56.58;;
63534;SDS011;55128;50.230;18.944;2024-03-02T01:56:47;73.95;;;44.47;;
63534;SDS011;55128;50.230;18.944;2024-03-02T02:01:47;69.25;;;43.95;;
63534;SDS011;55128;50.230;18.944;2024-03-02T02:06:48;73.83;;;44.47;;
63534;SDS011;55128;50.230;18.944;2024-03-02T02:11:48;75.35;;;48.58;;
63534;SDS011;55128;50.230;18.944;2024-03-02T02:16:50;75.95;;;48.05;;
63534;SDS011;55128;50.230;18.944;2024-03-02T02:21:52;73.10;;;43.45;;
63534;SDS011;55128;50.230;18.944;2024-03-02T02:26:52;66.73;;;42.23;;
63534;SDS011;55128;50.230;18.944;2024-03-02T02:31:52;59.60;;;37.80;;
63534;SDS011;55128;50.230;18.944;2024-03-02T02:36:53;57.97;;;38.53;;
63534;SDS011;55128;50.230;18.944;2024-03-02T02:41:54;68.22;;;43.38;;
63534;SDS011;55128;50.230;18.944;2024-03-02T02:46:54;61.83;;;40.28;;
63534;SDS011;55128;50.230;18.944;2024-03-02T02:51:54;65.22;;;42.67;;
63534;SDS011;55128;50.230;18.944;2024-03-02T02:56:55;68.97;;;41.33;;
63534;SDS011;55128;50.230;18.944;2024-03-02T03:01:55;57.97;;;39.38;;
63534;SDS011;55128;50.230;18.944;2024-03-02T03:06:55;61.73;;;39.10;;
63534;SDS011;55128;50.230;18.944;2024-03-02T03:11:56;59.92;;;38.80;;
63534;SDS011;55128;50.230;18.944;2024-03-02T03:16:56;54.57;;;33.80;;
63534;SDS011;55128;50.230;18.944;2024-03-02T03:21:56;53.03;;;32.90;;
63534;SDS011;55128;50.230;18.944;2024-03-02T03:26:57;55.87;;;35.00;;
63534;SDS011;55128;50.230;18.944;2024-03-02T03:31:57;51.27;;;30.87;;
63534;SDS011;55128;50.230;18.944;2024-03-02T03:36:58;56.35;;;35.95;;
63534;SDS011;55128;50.230;18.944;2024-03-02T03:41:58;47.22;;;31.92;;
63534;SDS011;55128;50.230;18.944;2024-03-02T03:46:58;52.05;;;33.88;;
63534;SDS011;55128;50.230;18.944;2024-03-02T03:51:59;52.22;;;32.28;;
63534;SDS011;55128;50.230;18.944;2024-03-02T03:57:00;46.78;;;31.40;;
63534;SDS011;55128;50.230;18.944;2024-03-02T04:02:00;54.45;;;34.13;;
63534;SDS011;55128;50.230;18.944;2024-03-02T04:07:01;52.47;;;33.43;;
63534;SDS011;55128;50.230;18.944;2024-03-02T04:12:02;47.40;;;33.03;;
63534;SDS011;55128;50.230;18.944;2024-03-02T04:17:02;50.58;;;34.10;;
63534;SDS011;55128;50.230;18.944;2024-03-02T04:22:03;47.88;;;31.00;;
63534;SDS011;55128;50.230;18.944;2024-03-02T04:27:03;46.95;;;30.85;;
63534;SDS011;55128;50.230;18.944;2024-03-02T04:32:04;46.30;;;30.33;;
63534;SDS011;55128;50.230;18.944;2024-03-02T04:37:04;48.55;;;30.05;;
63534;SDS011;55128;50.230;18.944;2024-03-02T04:42:05;66.90;;;39.83;;
63534;SDS011;55128;50.230;18.944;2024-03-02T04:47:05;69.78;;;45.70;;
63534;SDS011;55128;50.230;18.944;2024-03-02T04:52:05;88.18;;;51.70;;
63534;SDS011;55128;50.230;18.944;2024-03-02T04:57:06;71.57;;;45.25;;
63534;SDS011;55128;50.230;18.944;2024-03-02T05:02:07;82.57;;;48.17;;
63534;SDS011;55128;50.230;18.944;2024-03-02T05:07:08;65.75;;;41.80;;
63534;SDS011;55128;50.230;18.944;2024-03-02T05:12:08;63.95;;;40.85;;
63534;SDS011;55128;50.230;18.944;2024-03-02T05:17:23;68.45;;;42.20;;
63534;SDS011;55128;50.230;18.944;2024-03-02T05:22:23;61.58;;;38.92;;
63534;SDS011;55128;50.230;18.944;2024-03-02T05:27:24;60.10;;;37.42;;
63534;SDS011;55128;50.230;18.944;2024-03-02T05:32:24;58.13;;;38.10;;
63534;SDS011;55128;50.230;18.944;2024-03-02T05:37:25;56.13;;;37.30;;
63534;SDS011;55128;50.230;18.944;2024-03-02T05:42:25;59.30;;;37.90;;
63534;SDS011;55128;50.230;18.944;2024-03-02T05:47:27;58.50;;;39.35;;
63534;SDS011;55128;50.230;18.944;2024-03-02T05:52:28;59.58;;;37.70;;
63534;SDS011;55128;50.230;18.944;2024-03-02T05:57:28;54.75;;;36.47;;
63534;SDS011;55128;50.230;18.944;2024-03-02T06:02:43;53.03;;;35.22;;
63534;SDS011;55128;50.230;18.944;2024-03-02T06:07:44;54.28;;;35.92;;
63534;SDS011;55128;50.230;18.944;2024-03-02T06:12:44;53.10;;;35.90;;
63534;SDS011;55128;50.230;18.944;2024-03-02T06:17:45;52.50;;;35.97;;
63534;SDS011;55128;50.230;18.944;2024-03-02T06:22:45;51.57;;;33.67;;
63534;SDS011;55128;50.230;18.944;2024-03-02T06:27:45;48.88;;;32.15;;
63534;SDS011;55128;50.230;18.944;2024-03-02T06:32:46;57.97;;;39.40;;
63534;SDS011;55128;50.230;18.944;2024-03-02T06:37:46;57.08;;;40.05;;
63534;SDS011;55128;50.230;18.944;2024-03-02T06:42:46;57.77;;;39.20;;
63534;SDS011;55128;50.230;18.944;2024-03-02T06:47:47;55.25;;;37.92;;
63534;SDS011;55128;50.230;18.944;2024-03-02T06:52:47;55.20;;;39.13;;
63534;SDS011;55128;50.230;18.944;2024-03-02T06:57:47;60.00;;;41.33;;
63534;SDS011;55128;50.230;18.944;2024-03-02T07:02:48;61.08;;;41.42;;
63534;SDS011;55128;50.230;18.944;2024-03-02T07:07:49;66.57;;;43.28;;
63534;SDS011;55128;50.230;18.944;2024-03-02T07:12:49;61.58;;;40.67;;
63534;SDS011;55128;50.230;18.944;2024-03-02T07:17:49;64.00;;;42.45;;
63534;SDS011;55128;50.230;18.944;2024-03-02T07:22:50;62.33;;;43.23;;
63534;SDS011;55128;50.230;18.944;2024-03-02T07:27:50;59.42;;;40.53;;
63534;SDS011;55128;50.230;18.944;2024-03-02T07:32:51;54.83;;;35.47;;
63534;SDS011;55128;50.230;18.944;2024-03-02T07:37:51;59.83;;;40.00;;
63534;SDS011;55128;50.230;18.944;2024-03-02T07:42:52;57.92;;;39.45;;
63534;SDS011;55128;50.230;18.944;2024-03-02T07:47:52;58.80;;;41.30;;
63534;SDS011;55128;50.230;18.944;2024-03-02T07:52:53;56.33;;;37.67;;
63534;SDS011;55128;50.230;18.944;2024-03-02T07:57:54;61.08;;;40.63;;
63534;SDS011;55128;50.230;18.944;2024-03-02T08:02:56;56.00;;;37.45;;
63534;SDS011;55128;50.230;18.944;2024-03-02T08:07:56;55.72;;;38.30;;
63534;SDS011;55128;50.230;18.944;2024-03-02T08:12:57;54.30;;;38.42;;
63534;SDS011;55128;50.230;18.944;2024-03-02T08:17:57;55.67;;;40.03;;
63534;SDS011;55128;50.230;18.944;2024-03-02T08:22:58;74.43;;;48.20;;
63534;SDS011;55128;50.230;18.944;2024-03-02T08:27:58;55.53;;;40.17;;
63534;SDS011;55128;50.230;18.944;2024-03-02T08:32:59;55.53;;;38.97;;
63534;SDS011;55128;50.230;18.944;2024-03-02T08:38:00;57.53;;;38.95;;
63534;SDS011;55128;50.230;18.944;2024-03-02T08:43:01;54.75;;;38.58;;
63534;SDS011;55128;50.230;18.944;2024-03-02T08:48:01;49.75;;;35.33;;
63534;SDS011;55128;50.230;18.944;2024-03-02T08:53:04;52.38;;;35.58;;
63534;SDS011;55128;50.230;18.944;2024-03-02T08:58:05;47.80;;;30.80;;
63534;SDS011;55128;50.230;18.944;2024-03-02T09:03:06;42.38;;;29.20;;
63534;SDS011;55128;50.230;18.944;2024-03-02T09:08:06;42.63;;;33.08;;
63534;SDS011;55128;50.230;18.944;2024-03-02T09:13:07;37.63;;;27.47;;
63534;SDS011;55128;50.230;18.944;2024-03-02T09:18:07;34.70;;;26.42;;
63534;SDS011;55128;50.230;18.944;2024-03-02T09:23:08;35.08;;;25.15;;
63534;SDS011;55128;50.230;18.944;2024-03-02T09:28:08;36.95;;;25.63;;
63534;SDS011;55128;50.230;18.944;2024-03-02T09:33:08;34.20;;;24.88;;
63534;SDS011;55128;50.230;18.944;2024-03-02T09:38:09;36.30;;;25.03;;
63534;SDS011;55128;50.230;18.944;2024-03-02T09:43:09;31.40;;;23.67;;
63534;SDS011;55128;50.230;18.944;2024-03-02T09:48:10;38.58;;;27.00;;
63534;SDS011;55128;50.230;18.944;2024-03-02T09:53:10;38.23;;;27.80;;
63534;SDS011;55128;50.230;18.944;2024-03-02T09:58:12;42.65;;;30.27;;
63534;SDS011;55128;50.230;18.944;2024-03-02T10:03:12;39.42;;;25.70;;
63534;SDS011;55128;50.230;18.944;2024-03-02T10:08:13;46.00;;;33.20;;
63534;SDS011;55128;50.230;18.944;2024-03-02T10:13:14;43.28;;;28.60;;
63534;SDS011;55128;50.230;18.944;2024-03-02T10:18:14;38.08;;;26.30;;
63534;SDS011;55128;50.230;18.944;2024-03-02T10:23:28;34.88;;;26.17;;
63534;SDS011;55128;50.230;18.944;2024-03-02T10:28:28;36.17;;;26.27;;
63534;SDS011;55128;50.230;18.944;2024-03-02T10:33:29;34.92;;;25.90;;
63534;SDS011;55128;50.230;18.944;2024-03-02T10:38:30;33.90;;;24.52;;
63534;SDS011;55128;50.230;18.944;2024-03-02T10:43:30;34.93;;;24.10;;
63534;SDS011;55128;50.230;18.944;2024-03-02T10:48:31;36.28;;;25.10;;
63534;SDS011;55128;50.230;18.944;2024-03-02T10:53:33;37.42;;;26.00;;
63534;SDS011;55128;50.230;18.944;2024-03-02T10:58:33;37.22;;;26.48;;
63534;SDS011;55128;50.230;18.944;2024-03-02T11:03:35;37.67;;;26.85;;
63534;SDS011;55128;50.230;18.944;2024-03-02T11:08:39;38.78;;;25.75;;
63534;SDS011;55128;50.230;18.944;2024-03-02T11:13:42;35.63;;;25.90;;
63534;SDS011;55128;50.230;18.944;2024-03-02T11:18:49;34.90;;;26.38;;
63534;SDS011;55128;50.230;18.944;2024-03-02T11:23:50;38.45;;;26.50;;
63534;SDS011;55128;50.230;18.944;2024-03-02T11:28:50;39.92;;;27.58;;
63534;SDS011;55128;50.230;18.944;2024-03-02T11:33:51;39.03;;;25.05;;
63534;SDS011;55128;50.230;18.944;2024-03-02T11:38:52;34.83;;;26.45;;
63534;SDS011;55128;50.230;18.944;2024-03-02T11:43:53;31.00;;;22.65;;
63534;SDS011;55128;50.230;18.944;2024-03-02T11:48:54;31.10;;;22.02;;
63534;SDS011;55128;50.230;18.944;2024-03-02T11:53:54;29.77;;;21.05;;
63534;SDS011;55128;50.230;18.944;2024-03-02T11:58:56;28.73;;;21.45;;
63534;SDS011;55128;50.230;18.944;2024-03-02T12:03:58;27.02;;;20.27;;
63534;SDS011;55128;50.230;18.944;2024-03-02T12:08:58;33.97;;;21.98;;
63534;SDS011;55128;50.230;18.944;2024-03-02T12:13:59;27.50;;;20.13;;
63534;SDS011;55128;50.230;18.944;2024-03-02T12:18:59;29.30;;;20.20;;
63534;SDS011;55128;50.230;18.944;2024-03-02T12:24:00;27.50;;;19.15;;
63534;SDS011;55128;50.230;18.944;2024-03-02T12:29:01;26.42;;;18.58;;
63534;SDS011;55128;50.230;18.944;2024-03-02T12:34:02;25.45;;;18.88;;
63534;SDS011;55128;50.230;18.944;2024-03-02T12:39:04;29.55;;;20.40;;
63534;SDS011;55128;50.230;18.944;2024-03-02T12:44:04;30.90;;;22.23;;
63534;SDS011;55128;50.230;18.944;2024-03-02T12:49:09;27.80;;;21.20;;
63534;SDS011;55128;50.230;18.944;2024-03-02T12:54:11;28.85;;;21.65;;
63534;SDS011;55128;50.230;18.944;2024-03-02T12:59:21;28.20;;;22.40;;
63534;SDS011;55128;50.230;18.944;2024-03-02T13:04:26;31.80;;;22.67;;
63534;SDS011;55128;50.230;18.944;2024-03-02T13:09:28;33.67;;;24.15;;
63534;SDS011;55128;50.230;18.944;2024-03-02T13:14:31;32.25;;;24.38;;
63534;SDS011;55128;50.230;18.944;2024-03-02T13:19:33;33.97;;;24.33;;
63534;SDS011;55128;50.230;18.944;2024-03-02T13:24:33;30.48;;;23.73;;
63534;SDS011;55128;50.230;18.944;2024-03-02T13:29:33;32.87;;;23.53;;
63534;SDS011;55128;50.230;18.944;2024-03-02T13:34:34;29.13;;;20.95;;
63534;SDS011;55128;50.230;18.944;2024-03-02T13:39:34;32.55;;;22.45;;
63534;SDS011;55128;50.230;18.944;2024-03-02T13:44:40;23.60;;;19.20;;
63534;SDS011;55128;50.230;18.944;2024-03-02T13:49:45;26.73;;;19.88;;
63534;SDS011;55128;50.230;18.944;2024-03-02T13:54:47;25.30;;;19.85;;
63534;SDS011;55128;50.230;18.944;2024-03-02T13:59:51;24.85;;;18.67;;
63534;SDS011;55128;50.230;18.944;2024-03-02T14:04:52;24.95;;;18.55;;
63534;SDS011;55128;50.230;18.944;2024-03-02T14:09:53;27.65;;;18.90;;
63534;SDS011;55128;50.230;18.944;2024-03-02T14:14:53;26.88;;;19.45;;
63534;SDS011;55128;50.230;18.944;2024-03-02T14:19:55;26.08;;;20.25;;
63534;SDS011;55128;50.230;18.944;2024-03-02T14:24:57;23.00;;;18.60;;
63534;SDS011;55128;50.230;18.944;2024-03-02T14:29:57;26.77;;;19.67;;
63534;SDS011;55128;50.230;18.944;2024-03-02T14:34:58;28.35;;;19.38;;
63534;SDS011;55128;50.230;18.944;2024-03-02T14:39:58;28.27;;;19.90;;
63534;SDS011;55128;50.230;18.944;2024-03-02T14:44:59;24.45;;;19.27;;
63534;SDS011;55128;50.230;18.944;2024-03-02T14:49:59;27.25;;;18.77;;
63534;SDS011;55128;50.230;18.944;2024-03-02T14:55:00;28.50;;;20.80;;
63534;SDS011;55128;50.230;18.944;2024-03-02T15:00:01;23.67;;;19.45;;
63534;SDS011;55128;50.230;18.944;2024-03-02T15:05:02;25.05;;;19.98;;
63534;SDS011;55128;50.230;18.944;2024-03-02T15:10:04;29.02;;;20.60;;
63534;SDS011;55128;50.230;18.944;2024-03-02T15:15:04;26.33;;;20.63;;
63534;SDS011;55128;50.230;18.944;2024-03-02T15:20:05;31.05;;;21.05;;
63534;SDS011;55128;50.230;18.944;2024-03-02T15:25:07;26.85;;;19.98;;
63534;SDS011;55128;50.230;18.944;2024-03-02T15:30:08;37.58;;;25.95;;
63534;SDS011;55128;50.230;18.944;2024-03-02T15:35:08;37.08;;;25.73;;
63534;SDS011;55128;50.230;18.944;2024-03-02T15:40:09;41.90;;;31.08;;
63534;SDS011;55128;50.230;18.944;2024-03-02T15:45:10;39.65;;;28.85;;
63534;SDS011;55128;50.230;18.944;2024-03-02T15:50:11;31.58;;;26.13;;
63534;SDS011;55128;50.230;18.944;2024-03-02T15:55:12;34.17;;;26.40;;
63534;SDS011;55128;50.230;18.944;2024-03-02T16:00:15;42.85;;;29.77;;
63534;SDS011;55128;50.230;18.944;2024-03-02T16:05:16;45.80;;;31.02;;
63534;SDS011;55128;50.230;18.944;2024-03-02T16:10:17;38.30;;;27.73;;
63534;SDS011;55128;50.230;18.944;2024-03-02T16:15:17;36.63;;;25.40;;
63534;SDS011;55128;50.230;18.944;2024-03-02T16:20:17;34.60;;;25.83;;
63534;SDS011;55128;50.230;18.944;2024-03-02T16:25:18;36.45;;;26.52;;
63534;SDS011;55128;50.230;18.944;2024-03-02T16:30:18;32.10;;;23.47;;
63534;SDS011;55128;50.230;18.944;2024-03-02T16:35:20;47.03;;;33.20;;
63534;SDS011;55128;50.230;18.944;2024-03-02T16:40:20;98.43;;;69.95;;
63534;SDS011;55128;50.230;18.944;2024-03-02T16:45:27;61.75;;;51.95;;
63534;SDS011;55128;50.230;18.944;2024-03-02T16:50:30;49.80;;;39.80;;
63534;SDS011;55128;50.230;18.944;2024-03-02T16:55:30;55.38;;;43.15;;
63534;SDS011;55128;50.230;18.944;2024-03-02T17:00:30;47.27;;;35.60;;
63534;SDS011;55128;50.230;18.944;2024-03-02T17:05:31;29.42;;;22.70;;
63534;SDS011;55128;50.230;18.944;2024-03-02T17:10:31;31.48;;;25.02;;
63534;SDS011;55128;50.230;18.944;2024-03-02T17:15:31;39.30;;;30.67;;
63534;SDS011;55128;50.230;18.944;2024-03-02T17:20:32;33.40;;;27.13;;
63534;SDS011;55128;50.230;18.944;2024-03-02T17:25:32;30.10;;;24.48;;
63534;SDS011;55128;50.230;18.944;2024-03-02T17:30:33;34.90;;;25.65;;
63534;SDS011;55128;50.230;18.944;2024-03-02T17:35:33;34.22;;;25.48;;
63534;SDS011;55128;50.230;18.944;2024-03-02T17:40:35;39.25;;;27.88;;
63534;SDS011;55128;50.230;18.944;2024-03-02T17:45:35;47.40;;;34.90;;
63534;SDS011;55128;50.230;18.944;2024-03-02T17:50:35;50.90;;;40.50;;
63534;SDS011;55128;50.230;18.944;2024-03-02T17:55:37;39.67;;;30.50;;
63534;SDS011;55128;50.230;18.944;2024-03-02T18:00:37;43.47;;;29.55;;
63534;SDS011;55128;50.230;18.944;2024-03-02T18:05:38;52.35;;;42.80;;
63534;SDS011;55128;50.230;18.944;2024-03-02T18:10:39;57.10;;;42.20;;
63534;SDS011;55128;50.230;18.944;2024-03-02T18:15:39;52.07;;;38.37;;
63534;SDS011;55128;50.230;18.944;2024-03-02T18:20:40;64.63;;;46.10;;
63534;SDS011;55128;50.230;18.944;2024-03-02T18:25:40;74.20;;;55.30;;
63534;SDS011;55128;50.230;18.944;2024-03-02T18:30:46;64.25;;;49.70;;
63534;SDS011;55128;50.230;18.944;2024-03-02T18:35:46;86.45;;;70.75;;
63534;SDS011;55128;50.230;18.944;2024-03-02T18:40:47;76.30;;;57.08;;
63534;SDS011;55128;50.230;18.944;2024-03-02T18:45:47;73.70;;;52.92;;
63534;SDS011;55128;50.230;18.944;2024-03-02T18:50:48;93.93;;;65.13;;
63534;SDS011;55128;50.230;18.944;2024-03-02T18:55:48;61.95;;;45.30;;
63534;SDS011;55128;50.230;18.944;2024-03-02T19:00:49;62.10;;;46.10;;
63534;SDS011;55128;50.230;18.944;2024-03-02T19:05:49;53.30;;;43.65;;
63534;SDS011;55128;50.230;18.944;2024-03-02T19:10:50;63.00;;;45.08;;
63534;SDS011;55128;50.230;18.944;2024-03-02T19:15:50;65.65;;;49.17;;
63534;SDS011;55128;50.230;18.944;2024-03-02T19:20:51;72.65;;;54.22;;
63534;SDS011;55128;50.230;18.944;2024-03-02T19:25:52;82.55;;;64.20;;
63534;SDS011;55128;50.230;18.944;2024-03-02T19:30:53;73.47;;;56.88;;
63534;SDS011;55128;50.230;18.944;2024-03-02T19:35:54;71.13;;;54.60;;
63534;SDS011;55128;50.230;18.944;2024-03-02T19:40:54;74.85;;;51.80;;
63534;SDS011;55128;50.230;18.944;2024-03-02T19:45:55;71.38;;;54.53;;
63534;SDS011;55128;50.230;18.944;2024-03-02T19:50:55;62.78;;;46.03;;
63534;SDS011;55128;50.230;18.944;2024-03-02T19:55:56;54.88;;;40.72;;
63534;SDS011;55128;50.230;18.944;2024-03-02T20:00:56;60.47;;;41.72;;
63534;SDS011;55128;50.230;18.944;2024-03-02T20:05:57;148.98;;;78.38;;
63534;SDS011;55128;50.230;18.944;2024-03-02T20:10:57;96.10;;;62.20;;
63534;SDS011;55128;50.230;18.944;2024-03-02T20:15:58;110.35;;;71.00;;
63534;SDS011;55128;50.230;18.944;2024-03-02T20:21:00;94.80;;;61.90;;
63534;SDS011;55128;50.230;18.944;2024-03-02T20:26:04;90.38;;;63.55;;
63534;SDS011;55128;50.230;18.944;2024-03-02T20:31:05;89.53;;;65.47;;
63534;SDS011;55128;50.230;18.944;2024-03-02T20:36:11;95.45;;;59.30;;
63534;SDS011;55128;50.230;18.944;2024-03-02T20:41:13;83.90;;;56.42;;
63534;SDS011;55128;50.230;18.944;2024-03-02T20:46:15;91.30;;;60.47;;
63534;SDS011;55128;50.230;18.944;2024-03-02T20:51:16;120.57;;;80.97;;
63534;SDS011;55128;50.230;18.944;2024-03-02T20:56:16;84.60;;;54.80;;
63534;SDS011;55128;50.230;18.944;2024-03-02T21:01:16;112.25;;;74.90;;
63534;SDS011;55128;50.230;18.944;2024-03-02T21:06:17;111.65;;;71.10;;
63534;SDS011;55128;50.230;18.944;2024-03-02T21:11:20;135.80;;;88.28;;
63534;SDS011;55128;50.230;18.944;2024-03-02T21:16:22;148.52;;;85.18;;
63534;SDS011;55128;50.230;18.944;2024-03-02T21:21:24;104.93;;;71.63;;
63534;SDS011;55128;50.230;18.944;2024-03-02T21:26:24;108.40;;;71.47;;
63534;SDS011;55128;50.230;18.944;2024-03-02T21:31:25;119.65;;;79.97;;
63534;SDS011;55128;50.230;18.944;2024-03-02T21:36:25;112.10;;;70.90;;
63534;SDS011;55128;50.230;18.944;2024-03-02T21:41:26;98.18;;;65.80;;
63534;SDS011;55128;50.230;18.944;2024-03-02T21:46:26;89.85;;;62.38;;
63534;SDS011;55128;50.230;18.944;2024-03-02T21:51:26;88.17;;;60.10;;
63534;SDS011;55128;50.230;18.944;2024-03-02T21:56:27;91.13;;;61.88;;
63534;SDS011;55128;50.230;18.944;2024-03-02T22:01:27;94.43;;;63.22;;
63534;SDS011;55128;50.230;18.944;2024-03-02T22:06:28;94.32;;;62.72;;
63534;SDS011;55128;50.230;18.944;2024-03-02T22:11:28;100.38;;;66.28;;
63534;SDS011;55128;50.230;18.944;2024-03-02T22:16:29;93.40;;;62.70;;
63534;SDS011;55128;50.230;18.944;2024-03-02T22:21:29;79.30;;;55.57;;
63534;SDS011;55128;50.230;18.944;2024-03-02T22:26:29;83.90;;;58.67;;
63534;SDS011;55128;50.230;18.944;2024-03-02T22:31:30;97.80;;;65.17;;
63534;SDS011;55128;50.230;18.944;2024-03-02T22:36:30;97.57;;;65.85;;
63534;SDS011;55128;50.230;18.944;2024-03-02T22:41:30;98.68;;;62.60;;
63534;SDS011;55128;50.230;18.944;2024-03-02T22:46:31;87.50;;;59.40;;
63534;SDS011;55128;50.230;18.944;2024-03-02T22:51:31;92.75;;;62.55;;
63534;SDS011;55128;50.230;18.944;2024-03-02T22:56:32;86.13;;;59.90;;
63534;SDS011;55128;50.230;18.944;2024-03-02T23:01:32;86.13;;;58.60;;
63534;SDS011;55128;50.230;18.944;2024-03-02T23:06:33;86.10;;;58.63;;
63534;SDS011;55128;50.230;18.944;2024-03-02T23:11:33;87.50;;;60.00;;
63534;SDS011;55128;50.230;18.944;2024-03-02T23:16:34;83.60;;;57.90;;
63534;SDS011;55128;50.230;18.944;2024-03-02T23:21:37;85.35;;;59.38;;
63534;SDS011;55128;50.230;18.944;2024-03-02T23:26:38;88.38;;;58.90;;
63534;SDS011;55128;50.230;18.944;2024-03-02T23:31:39;86.72;;;60.47;;
63534;SDS011;55128;50.230;18.944;2024-03-02T23:36:39;83.25;;;59.70;;
63534;SDS011;55128;50.230;18.944;2024-03-02T23:41:39;77.40;;;56.10;;
63534;SDS011;55128;50.230;18.944;2024-03-02T23:46:40;91.65;;;58.55;;
63534;SDS011;55128;50.230;18.944;2024-03-02T23:51:40;81.93;;;52.50;;
63534;SDS011;55128;50.230;18.944;2024-03-02T23:56:41;70.75;;;48.60;;
